createdAt,value
2022-12-11T00:00:40.108Z,51.216084
2022-12-11T00:01:40.103Z,51.216236
2022-12-11T00:02:40.121Z,51.216145
2022-12-11T00:03:40.118Z,51.216064
2022-12-11T00:04:40.080Z,51.215969
2022-12-11T00:05:40.078Z,51.216015
2022-12-11T00:06:40.073Z,51.216125
2022-12-11T00:07:40.075Z,51.216194
2022-12-11T00:08:40.056Z,51.216164
2022-12-11T00:09:40.055Z,51.216145
2022-12-11T00:10:40.049Z,51.216129
2022-12-11T00:11:40.036Z,51.216110
2022-12-11T00:12:40.042Z,51.216152
2022-12-11T00:13:40.040Z,51.216087
2022-12-11T00:14:40.006Z,51.216080
2022-12-11T00:15:40.007Z,51.216064
2022-12-11T00:16:40.065Z,51.216133
2022-12-11T00:17:40.005Z,51.216156
2022-12-11T00:18:40.030Z,51.216133
2022-12-11T00:19:39.994Z,51.216068
2022-12-11T00:20:39.982Z,51.216038
2022-12-11T00:21:39.978Z,51.215973
2022-12-11T00:22:39.958Z,51.216080
2022-12-11T00:23:39.993Z,51.216022
2022-12-11T00:24:39.954Z,51.215939
2022-12-11T00:25:39.946Z,51.216053
2022-12-11T00:26:39.926Z,51.216053
2022-12-11T00:27:39.928Z,51.216026
2022-12-11T00:28:39.934Z,51.216042
2022-12-11T00:29:39.928Z,51.216099
2022-12-11T00:30:39.915Z,51.216057
2022-12-11T00:31:39.940Z,51.216042
2022-12-11T00:32:39.898Z,51.216053
2022-12-11T00:33:39.890Z,51.216076
2022-12-11T00:34:39.907Z,51.216087
2022-12-11T00:35:39.883Z,51.216209
2022-12-11T00:36:39.882Z,51.215981
2022-12-11T00:37:39.940Z,51.216000
2022-12-11T00:38:39.870Z,51.215885
2022-12-11T00:39:39.868Z,51.215836
2022-12-11T00:40:39.884Z,51.215847
2022-12-11T00:41:39.839Z,51.215942
2022-12-11T00:42:39.834Z,51.215904
2022-12-11T00:43:39.838Z,51.215969
2022-12-11T00:44:39.819Z,51.216022
2022-12-11T00:45:39.906Z,51.215916
2022-12-11T00:46:39.807Z,51.216022
2022-12-11T00:47:39.818Z,51.215984
2022-12-11T00:48:39.801Z,51.216103
2022-12-11T00:49:40.607Z,51.216068
2022-12-11T00:50:39.785Z,51.216053
2022-12-11T00:51:39.803Z,51.216068
2022-12-11T00:52:39.770Z,51.216049
2022-12-11T00:53:39.767Z,51.216030
2022-12-11T00:54:39.766Z,51.216019
2022-12-11T00:55:39.769Z,51.216091
2022-12-11T00:56:39.754Z,51.216045
2022-12-11T00:57:39.742Z,51.216053
2022-12-11T00:58:39.741Z,51.216003
2022-12-11T00:59:39.727Z,51.216099
2022-12-11T01:00:39.732Z,51.216095
2022-12-11T01:01:39.793Z,51.216087
2022-12-11T01:02:39.737Z,51.216034
2022-12-11T01:03:39.709Z,51.215977
2022-12-11T01:04:39.694Z,51.215992
2022-12-11T01:05:39.698Z,51.215984
2022-12-11T01:06:39.709Z,51.216003
2022-12-11T01:07:39.691Z,51.215908
2022-12-11T01:08:39.675Z,51.216003
2022-12-11T01:09:39.669Z,51.215977
2022-12-11T01:10:39.753Z,51.216068
2022-12-11T01:11:39.654Z,51.216087
2022-12-11T01:12:39.782Z,51.216068
2022-12-11T01:13:39.642Z,51.216148
2022-12-11T01:14:39.658Z,51.216133
2022-12-11T01:15:41.641Z,51.216114
2022-12-11T01:16:40.659Z,51.216103
2022-12-11T01:17:39.650Z,51.216030
2022-12-11T01:18:39.606Z,51.216057
2022-12-11T01:19:39.621Z,51.216068
2022-12-11T01:20:39.590Z,51.216064
2022-12-11T01:21:39.583Z,51.216118
2022-12-11T01:22:39.586Z,51.216118
2022-12-11T01:23:39.570Z,51.216160
2022-12-11T01:24:39.561Z,51.216118
2022-12-11T01:25:39.587Z,51.216091
2022-12-11T01:26:39.557Z,51.216084
2022-12-11T01:27:39.542Z,51.216061
2022-12-11T01:28:39.546Z,51.215992
2022-12-11T01:29:39.538Z,51.216072
2022-12-11T01:30:39.577Z,51.216122
2022-12-11T01:31:39.525Z,51.216171
2022-12-11T01:32:39.515Z,51.216206
2022-12-11T01:33:39.505Z,51.216206
2022-12-11T01:34:39.520Z,51.216183
2022-12-11T01:35:39.501Z,51.216248
2022-12-11T01:36:39.494Z,51.216106
2022-12-11T01:37:39.486Z,51.216141
2022-12-11T01:38:39.477Z,51.216167
2022-12-11T01:39:39.476Z,51.216175
2022-12-11T01:40:39.470Z,51.216228
2022-12-11T01:41:39.457Z,51.216209
2022-12-11T01:42:39.447Z,51.216167
2022-12-11T01:43:39.442Z,51.216129
2022-12-11T01:44:39.453Z,51.216141
2022-12-11T01:45:39.463Z,51.216240
2022-12-11T01:46:39.425Z,51.216084
2022-12-11T01:47:39.413Z,51.216042
2022-12-11T01:48:42.309Z,51.216137
2022-12-11T01:49:40.416Z,51.216118
2022-12-11T01:50:39.402Z,51.216148
2022-12-11T01:51:39.402Z,51.216152
2022-12-11T01:52:39.386Z,51.216148
2022-12-11T01:53:39.377Z,51.216087
2022-12-11T01:54:39.379Z,51.215946
2022-12-11T01:55:39.393Z,51.216061
2022-12-11T01:56:39.376Z,51.216129
2022-12-11T01:57:39.355Z,51.216167
2022-12-11T01:58:39.354Z,51.216133
2022-12-11T01:59:39.344Z,51.216160
2022-12-11T02:00:40.357Z,51.216160
2022-12-11T02:01:39.378Z,51.216156
2022-12-11T02:02:39.358Z,51.216156
2022-12-11T02:03:39.315Z,51.216137
2022-12-11T02:04:39.315Z,51.216076
2022-12-11T02:05:39.312Z,51.216129
2022-12-11T02:06:39.313Z,51.216141
2022-12-11T02:07:39.337Z,51.216164
2022-12-11T02:08:39.277Z,51.216133
2022-12-11T02:09:39.275Z,51.216255
2022-12-11T02:10:39.259Z,51.216171
2022-12-11T02:11:39.263Z,51.216202
2022-12-11T02:12:39.262Z,51.216057
2022-12-11T02:13:39.245Z,51.215958
2022-12-11T02:14:39.247Z,51.216015
2022-12-11T02:15:39.237Z,51.216106
2022-12-11T02:16:39.257Z,51.216064
2022-12-11T02:17:39.228Z,51.216064
2022-12-11T02:18:39.217Z,51.215801
2022-12-11T02:19:39.211Z,51.215935
2022-12-11T02:20:39.203Z,51.216042
2022-12-11T02:21:39.206Z,51.216007
2022-12-11T02:22:39.200Z,51.216049
2022-12-11T02:23:39.187Z,51.216095
2022-12-11T02:24:39.179Z,51.215969
2022-12-11T02:25:39.171Z,51.215984
2022-12-11T02:26:39.163Z,51.215996
2022-12-11T02:27:39.183Z,51.216011
2022-12-11T02:28:39.146Z,51.216240
2022-12-11T02:29:39.156Z,51.216251
2022-12-11T02:30:39.144Z,51.216095
2022-12-11T02:31:39.167Z,51.216187
2022-12-11T02:32:39.144Z,51.215908
2022-12-11T02:33:39.124Z,51.215778
2022-12-11T02:34:39.116Z,51.215988
2022-12-11T02:35:39.111Z,51.216125
2022-12-11T02:36:39.095Z,51.216076
2022-12-11T02:37:39.096Z,51.216141
2022-12-11T02:38:39.102Z,51.216194
2022-12-11T02:39:40.084Z,51.216141
2022-12-11T02:40:39.082Z,51.216076
2022-12-11T02:41:39.073Z,51.216240
2022-12-11T02:42:39.100Z,51.216240
2022-12-11T02:43:39.085Z,51.216228
2022-12-11T02:44:39.051Z,51.216156
2022-12-11T02:45:39.193Z,51.216141
2022-12-11T02:46:39.041Z,51.216129
2022-12-11T02:47:39.032Z,51.216187
2022-12-11T02:48:39.032Z,51.216194
2022-12-11T02:49:39.039Z,51.216183
2022-12-11T02:50:39.018Z,51.216183
2022-12-11T02:51:39.009Z,51.216183
2022-12-11T02:52:39.003Z,51.216152
2022-12-11T02:53:39.005Z,51.216164
2022-12-11T02:54:38.987Z,51.216125
2022-12-11T02:55:38.988Z,51.216087
2022-12-11T02:56:38.972Z,51.216106
2022-12-11T02:57:38.967Z,51.216114
2022-12-11T02:58:38.976Z,51.216137
2022-12-11T02:59:38.978Z,51.216076
2022-12-11T03:00:38.952Z,51.216148
2022-12-11T03:01:38.950Z,51.216175
2022-12-11T03:02:38.978Z,51.216129
2022-12-11T03:03:38.979Z,51.216091
2022-12-11T03:04:38.935Z,51.216118
2022-12-11T03:05:38.913Z,51.216187
2022-12-11T03:06:38.904Z,51.216133
2022-12-11T03:07:38.904Z,51.216110
2022-12-11T03:08:38.897Z,51.216057
2022-12-11T03:09:38.918Z,51.216076
2022-12-11T03:10:38.882Z,51.216270
2022-12-11T03:11:38.871Z,51.216232
2022-12-11T03:12:38.867Z,51.216259
2022-12-11T03:13:38.864Z,51.216118
2022-12-11T03:14:38.859Z,51.215977
2022-12-11T03:15:38.848Z,51.216084
2022-12-11T03:16:38.980Z,51.216373
2022-12-11T03:17:38.848Z,51.216553
2022-12-11T03:18:38.843Z,51.216263
2022-12-11T03:19:38.829Z,51.216198
2022-12-11T03:20:38.836Z,51.216179
2022-12-11T03:21:38.820Z,51.216267
2022-12-11T03:22:38.803Z,51.216202
2022-12-11T03:23:38.803Z,51.216225
2022-12-11T03:24:38.793Z,51.216187
2022-12-11T03:25:38.803Z,51.216068
2022-12-11T03:26:38.778Z,51.215981
2022-12-11T03:27:38.772Z,51.215824
2022-12-11T03:28:38.767Z,51.215767
2022-12-11T03:29:38.768Z,51.215824
2022-12-11T03:30:38.780Z,51.215988
2022-12-11T03:31:38.763Z,51.216293
2022-12-11T03:32:38.743Z,51.216187
2022-12-11T03:33:38.739Z,51.216129
2022-12-11T03:34:38.735Z,51.215885
2022-12-11T03:35:38.726Z,51.215889
2022-12-11T03:36:38.729Z,51.216198
2022-12-11T03:37:38.719Z,51.216133
2022-12-11T03:38:38.718Z,51.216156
2022-12-11T03:39:38.689Z,51.216103
2022-12-11T03:40:38.687Z,51.216095
2022-12-11T03:41:38.687Z,51.216057
2022-12-11T03:42:38.685Z,51.216084
2022-12-11T03:43:38.694Z,51.216125
2022-12-11T03:44:38.676Z,51.216095
2022-12-11T03:45:38.668Z,51.216110
2022-12-11T03:46:38.658Z,51.216049
2022-12-11T03:47:38.655Z,51.216053
2022-12-11T03:48:38.658Z,51.215961
2022-12-11T03:49:38.636Z,51.215996
2022-12-11T03:50:38.633Z,51.216087
2022-12-11T03:51:38.630Z,51.216022
2022-12-11T03:52:45.312Z,51.215942
2022-12-11T03:53:40.631Z,51.215992
2022-12-11T03:54:38.604Z,51.215965
2022-12-11T03:55:38.595Z,51.216053
2022-12-11T03:56:38.597Z,51.216015
2022-12-11T03:57:38.589Z,51.216076
2022-12-11T03:58:38.595Z,51.216026
2022-12-11T03:59:38.565Z,51.215996
2022-12-11T04:00:38.570Z,51.216084
2022-12-11T04:01:38.618Z,51.216080
2022-12-11T04:02:38.551Z,51.216152
2022-12-11T04:03:38.571Z,51.216122
2022-12-11T04:04:38.617Z,51.216022
2022-12-11T04:05:38.524Z,51.216072
2022-12-11T04:06:38.532Z,51.216156
2022-12-11T04:07:38.515Z,51.216305
2022-12-11T04:08:38.532Z,51.216103
2022-12-11T04:09:38.505Z,51.216091
2022-12-11T04:10:38.501Z,51.215939
2022-12-11T04:11:38.495Z,51.215984
2022-12-11T04:12:38.479Z,51.216091
2022-12-11T04:13:38.507Z,51.216221
2022-12-11T04:14:38.480Z,51.216072
2022-12-11T04:15:38.601Z,51.216003
2022-12-11T04:16:38.465Z,51.215977
2022-12-11T04:17:38.455Z,51.215935
2022-12-11T04:18:38.469Z,51.216099
2022-12-11T04:19:38.445Z,51.216030
2022-12-11T04:20:38.443Z,51.216118
2022-12-11T04:21:39.820Z,51.215981
2022-12-11T04:22:39.428Z,51.216076
2022-12-11T04:23:38.421Z,51.215858
2022-12-11T04:24:38.428Z,51.215961
2022-12-11T04:25:38.408Z,51.216061
2022-12-11T04:26:38.409Z,51.216125
2022-12-11T04:27:38.397Z,51.216030
2022-12-11T04:28:38.392Z,51.216110
2022-12-11T04:29:38.403Z,51.216042
2022-12-11T04:30:38.376Z,51.215893
2022-12-11T04:31:38.363Z,51.216072
2022-12-11T04:32:38.359Z,51.216148
2022-12-11T04:33:38.352Z,51.215881
2022-12-11T04:34:38.364Z,51.215904
2022-12-11T04:35:38.375Z,51.216236
2022-12-11T04:36:38.335Z,51.216156
2022-12-11T04:37:38.330Z,51.216152
2022-12-11T04:38:38.320Z,51.216022
2022-12-11T04:39:38.335Z,51.215816
2022-12-11T04:40:38.306Z,51.216084
2022-12-11T04:41:38.303Z,51.215969
2022-12-11T04:42:38.294Z,51.216045
2022-12-11T04:43:44.848Z,51.215691
2022-12-11T04:44:38.299Z,51.215752
2022-12-11T04:45:38.279Z,51.215935
2022-12-11T04:46:38.307Z,51.215908
2022-12-11T04:47:38.264Z,51.215923
2022-12-11T04:48:38.261Z,51.216049
2022-12-11T04:49:38.247Z,51.215969
2022-12-11T04:50:38.254Z,51.215984
2022-12-11T04:51:38.251Z,51.216141
2022-12-11T04:52:38.232Z,51.216080
2022-12-11T04:53:38.239Z,51.215984
2022-12-11T04:54:39.222Z,51.215881
2022-12-11T04:55:38.202Z,51.215977
2022-12-11T04:56:38.215Z,51.215893
2022-12-11T04:57:38.199Z,51.215923
2022-12-11T04:58:38.214Z,51.215939
2022-12-11T04:59:38.187Z,51.215923
2022-12-11T05:00:38.183Z,51.215958
2022-12-11T05:01:38.226Z,51.216022
2022-12-11T05:02:38.231Z,51.216084
2022-12-11T05:03:38.178Z,51.216049
2022-12-11T05:04:38.162Z,51.216049
2022-12-11T05:05:38.143Z,51.215992
2022-12-11T05:06:38.138Z,51.215942
2022-12-11T05:07:38.123Z,51.216038
2022-12-11T05:08:38.143Z,51.215858
2022-12-11T05:09:38.123Z,51.215755
2022-12-11T05:10:38.111Z,51.215832
2022-12-11T05:11:38.103Z,51.215775
2022-12-11T05:12:38.095Z,51.215595
2022-12-11T05:13:38.096Z,51.215450
2022-12-11T05:14:38.090Z,51.215504
2022-12-11T05:15:38.097Z,51.216030
2022-12-11T05:16:38.068Z,51.215847
2022-12-11T05:17:38.060Z,51.215866
2022-12-11T05:18:38.058Z,51.215866
2022-12-11T05:19:38.072Z,51.216007
2022-12-11T05:20:38.051Z,51.215832
2022-12-11T05:21:38.053Z,51.215729
2022-12-11T05:22:38.035Z,51.215904
2022-12-11T05:23:38.038Z,51.215919
2022-12-11T05:24:38.040Z,51.216228
2022-12-11T05:25:38.043Z,51.215900
2022-12-11T05:26:38.015Z,51.215767
2022-12-11T05:27:38.085Z,51.215961
2022-12-11T05:28:38.030Z,51.215725
2022-12-11T05:29:37.990Z,51.215931
2022-12-11T05:30:37.990Z,51.215897
2022-12-11T05:31:38.050Z,51.215446
2022-12-11T05:32:37.973Z,51.215591
2022-12-11T05:33:37.976Z,51.215664
2022-12-11T05:34:38.004Z,51.215908
2022-12-11T05:35:37.960Z,51.216263
2022-12-11T05:36:37.954Z,51.216484
2022-12-11T05:37:37.943Z,51.216534
2022-12-11T05:38:37.942Z,51.216805
2022-12-11T05:39:37.970Z,51.216827
2022-12-11T05:40:37.934Z,51.216778
2022-12-11T05:41:37.919Z,51.216866
2022-12-11T05:42:37.922Z,51.216557
2022-12-11T05:43:37.911Z,51.216404
2022-12-11T05:44:37.907Z,51.216156
2022-12-11T05:45:37.934Z,51.216282
2022-12-11T05:46:37.927Z,51.216076
2022-12-11T05:47:37.887Z,51.216190
2022-12-11T05:48:37.882Z,51.215858
2022-12-11T05:49:37.874Z,51.215923
2022-12-11T05:50:37.885Z,51.215965
2022-12-11T05:51:37.866Z,51.216019
2022-12-11T05:52:37.855Z,51.215885
2022-12-11T05:53:37.847Z,51.215706
2022-12-11T05:54:37.846Z,51.215836
2022-12-11T05:55:37.830Z,51.215912
2022-12-11T05:56:37.853Z,51.216309
2022-12-11T05:57:37.817Z,51.216362
2022-12-11T05:58:37.818Z,51.216148
2022-12-11T05:59:37.815Z,51.216171
2022-12-11T06:00:37.802Z,51.216175
2022-12-11T06:01:37.865Z,51.216278
2022-12-11T06:02:37.857Z,51.216358
2022-12-11T06:03:37.771Z,51.216263
2022-12-11T06:04:38.789Z,51.216335
2022-12-11T06:05:37.775Z,51.216255
2022-12-11T06:06:37.786Z,51.216164
2022-12-11T06:07:37.756Z,51.216187
2022-12-11T06:08:37.758Z,51.216267
2022-12-11T06:09:37.739Z,51.216236
2022-12-11T06:10:37.738Z,51.216164
2022-12-11T06:11:37.730Z,51.216152
2022-12-11T06:12:37.743Z,51.216087
2022-12-11T06:13:37.719Z,51.216125
2022-12-11T06:14:37.715Z,51.216248
2022-12-11T06:15:37.706Z,51.216274
2022-12-11T06:16:37.739Z,51.216290
2022-12-11T06:17:37.702Z,51.216187
2022-12-11T06:18:37.693Z,51.216263
2022-12-11T06:19:37.679Z,51.216160
2022-12-11T06:20:37.674Z,51.216221
2022-12-11T06:21:37.660Z,51.216221
2022-12-11T06:22:37.678Z,51.216232
2022-12-11T06:23:37.646Z,51.216255
2022-12-11T06:24:37.641Z,51.216225
2022-12-11T06:25:37.651Z,51.216187
2022-12-11T06:26:37.624Z,51.216175
2022-12-11T06:27:37.622Z,51.216095
2022-12-11T06:28:37.617Z,51.216087
2022-12-11T06:29:37.614Z,51.216236
2022-12-11T06:30:39.410Z,51.216305
2022-12-11T06:31:37.607Z,51.216354
2022-12-11T06:32:37.587Z,51.216282
2022-12-11T06:33:37.586Z,51.216225
2022-12-11T06:34:37.573Z,51.216114
2022-12-11T06:35:41.951Z,51.216057
2022-12-11T06:36:38.574Z,51.216129
2022-12-11T06:37:37.559Z,51.216167
2022-12-11T06:38:37.554Z,51.216251
2022-12-11T06:39:37.546Z,51.216110
2022-12-11T06:40:37.535Z,51.216042
2022-12-11T06:41:37.537Z,51.216011
2022-12-11T06:42:37.531Z,51.216022
2022-12-11T06:43:37.537Z,51.216053
2022-12-11T06:44:37.521Z,51.216034
2022-12-11T06:45:37.540Z,51.216034
2022-12-11T06:46:37.514Z,51.216156
2022-12-11T06:47:37.498Z,51.216190
2022-12-11T06:48:37.500Z,51.216148
2022-12-11T06:49:37.487Z,51.216103
2022-12-11T06:50:37.474Z,51.216145
2022-12-11T06:51:37.473Z,51.216103
2022-12-11T06:52:37.476Z,51.216099
2022-12-11T06:53:37.490Z,51.216129
2022-12-11T06:54:37.464Z,51.216198
2022-12-11T06:55:37.458Z,51.216125
2022-12-11T06:56:37.450Z,51.216137
2022-12-11T06:57:37.489Z,51.215954
2022-12-11T06:58:37.429Z,51.215950
2022-12-11T06:59:37.432Z,51.215946
2022-12-11T07:00:37.456Z,51.215912
2022-12-11T07:01:37.403Z,51.215847
2022-12-11T07:02:37.446Z,51.215687
2022-12-11T07:03:37.401Z,51.215824
2022-12-11T07:04:37.390Z,51.215843
2022-12-11T07:05:37.387Z,51.216122
2022-12-11T07:06:37.402Z,51.216206
2022-12-11T07:07:37.371Z,51.216179
2022-12-11T07:08:37.357Z,51.216110
2022-12-11T07:09:37.431Z,51.216160
2022-12-11T07:10:37.337Z,51.216133
2022-12-11T07:11:37.356Z,51.216137
2022-12-11T07:12:38.326Z,51.216114
2022-12-11T07:13:37.325Z,51.216076
2022-12-11T07:14:37.322Z,51.216099
2022-12-11T07:15:40.508Z,51.216080
2022-12-11T07:16:38.348Z,51.216053
2022-12-11T07:17:37.307Z,51.216019
2022-12-11T07:18:37.297Z,51.216103
2022-12-11T07:19:37.292Z,51.216198
2022-12-11T07:20:37.286Z,51.216133
2022-12-11T07:21:37.274Z,51.216206
2022-12-11T07:22:41.587Z,51.216175
2022-12-11T07:23:38.274Z,51.216175
2022-12-11T07:24:37.271Z,51.216156
2022-12-11T07:25:37.254Z,51.216198
2022-12-11T07:26:37.233Z,51.216175
2022-12-11T07:27:37.250Z,51.216114
2022-12-11T07:28:37.238Z,51.216190
2022-12-11T07:29:37.217Z,51.216160
2022-12-11T07:30:37.218Z,51.216110
2022-12-11T07:31:37.311Z,51.216080
2022-12-11T07:32:37.233Z,51.216125
2022-12-11T07:33:37.220Z,51.216141
2022-12-11T07:34:37.191Z,51.216148
2022-12-11T07:35:37.183Z,51.216156
2022-12-11T07:36:37.179Z,51.216148
2022-12-11T07:37:37.183Z,51.216129
2022-12-11T07:38:37.174Z,51.216152
2022-12-11T07:39:37.163Z,51.216129
2022-12-11T07:40:37.161Z,51.216003
2022-12-11T07:41:37.213Z,51.216064
2022-12-11T07:42:41.405Z,51.216179
2022-12-11T07:43:38.141Z,51.216175
2022-12-11T07:44:37.138Z,51.216125
2022-12-11T07:45:37.163Z,51.216152
2022-12-11T07:46:37.126Z,51.216141
2022-12-11T07:47:37.109Z,51.216084
2022-12-11T07:48:37.105Z,51.216022
2022-12-11T07:49:37.106Z,51.215977
2022-12-11T07:50:39.900Z,51.216068
2022-12-11T07:51:38.077Z,51.216160
2022-12-11T07:52:37.076Z,51.216145
2022-12-11T07:53:37.060Z,51.216187
2022-12-11T07:54:37.095Z,51.216160
2022-12-11T07:55:37.060Z,51.216095
2022-12-11T07:56:37.063Z,51.216202
2022-12-11T07:57:37.101Z,51.216305
2022-12-11T07:58:37.033Z,51.216236
2022-12-11T07:59:37.036Z,51.216068
2022-12-11T08:00:37.024Z,51.216064
2022-12-11T08:01:37.072Z,51.216171
2022-12-11T08:02:37.564Z,51.216167
2022-12-11T08:03:37.991Z,51.216156
2022-12-11T08:04:37.009Z,51.216160
2022-12-11T08:05:36.981Z,51.216110
2022-12-11T08:06:36.974Z,51.216011
2022-12-11T08:07:36.976Z,51.216084
2022-12-11T08:08:36.971Z,51.216118
2022-12-11T08:09:36.968Z,51.216125
2022-12-11T08:10:36.957Z,51.216156
2022-12-11T08:11:36.968Z,51.216152
2022-12-11T08:12:36.937Z,51.216206
2022-12-11T08:13:36.933Z,51.216068
2022-12-11T08:14:36.933Z,51.216049
2022-12-11T08:15:36.916Z,51.216148
2022-12-11T08:16:36.981Z,51.216148
2022-12-11T08:17:40.126Z,51.216061
2022-12-11T08:18:37.903Z,51.216129
2022-12-11T08:19:36.896Z,51.216103
2022-12-11T08:20:36.897Z,51.216122
2022-12-11T08:21:36.896Z,51.216110
2022-12-11T08:22:36.884Z,51.216084
2022-12-11T08:23:36.873Z,51.216038
2022-12-11T08:24:36.858Z,51.215961
2022-12-11T08:25:36.845Z,51.215981
2022-12-11T08:26:36.845Z,51.216145
2022-12-11T08:27:36.853Z,51.216175
2022-12-11T08:28:36.833Z,51.216137
2022-12-11T08:29:37.257Z,51.215996
2022-12-11T08:30:36.883Z,51.216034
2022-12-11T08:31:36.814Z,51.215935
2022-12-11T08:32:36.815Z,51.215950
2022-12-11T08:33:36.796Z,51.215885
2022-12-11T08:34:36.794Z,51.215988
2022-12-11T08:35:36.805Z,51.215988
2022-12-11T08:36:36.777Z,51.216076
2022-12-11T08:37:36.779Z,51.215942
2022-12-11T08:38:36.773Z,51.215973
2022-12-11T08:39:36.768Z,51.216022
2022-12-11T08:40:36.757Z,51.215908
2022-12-11T08:41:36.774Z,51.216038
2022-12-11T08:42:36.729Z,51.216156
2022-12-11T08:43:36.737Z,51.216118
2022-12-11T08:44:36.744Z,51.216015
2022-12-11T08:45:36.719Z,51.216148
2022-12-11T08:46:36.788Z,51.216122
2022-12-11T08:47:36.713Z,51.215973
2022-12-11T08:48:36.704Z,51.216045
2022-12-11T08:49:36.703Z,51.216103
2022-12-11T08:50:36.689Z,51.216106
2022-12-11T08:51:36.683Z,51.216255
2022-12-11T08:52:36.682Z,51.216206
2022-12-11T08:53:36.683Z,51.216061
2022-12-11T08:54:36.678Z,51.216141
2022-12-11T08:55:36.658Z,51.216129
2022-12-11T08:56:36.653Z,51.216064
2022-12-11T08:57:36.645Z,51.216057
2022-12-11T08:58:36.713Z,51.216167
2022-12-11T08:59:36.629Z,51.216114
2022-12-11T09:00:36.632Z,51.216087
2022-12-11T09:01:36.745Z,51.216057
2022-12-11T09:02:36.653Z,51.216076
2022-12-11T09:03:36.620Z,51.216045
2022-12-11T09:04:36.608Z,51.216053
2022-12-11T09:05:36.602Z,51.215981
2022-12-11T09:06:36.584Z,51.216045
2022-12-11T09:07:36.571Z,51.216091
2022-12-11T09:08:36.580Z,51.216057
2022-12-11T09:09:36.586Z,51.215950
2022-12-11T09:10:36.553Z,51.216106
2022-12-11T09:11:36.556Z,51.216057
2022-12-11T09:12:36.537Z,51.216133
2022-12-11T09:13:36.537Z,51.216137
2022-12-11T09:14:36.559Z,51.216122
2022-12-11T09:15:37.592Z,51.216110
2022-12-11T09:16:36.524Z,51.216179
2022-12-11T09:17:36.532Z,51.216129
2022-12-11T09:18:36.515Z,51.216125
2022-12-11T09:19:36.518Z,51.216125
2022-12-11T09:20:36.487Z,51.216164
2022-12-11T09:21:37.491Z,51.216110
2022-12-11T09:22:36.493Z,51.216061
2022-12-11T09:23:36.475Z,51.216045
2022-12-11T09:24:36.483Z,51.216122
2022-12-11T09:25:36.479Z,51.216152
2022-12-11T09:26:36.463Z,51.216122
2022-12-11T09:27:36.454Z,51.216164
2022-12-11T09:28:38.162Z,51.216171
2022-12-11T09:29:37.459Z,51.216076
2022-12-11T09:30:36.460Z,51.216053
2022-12-11T09:31:36.434Z,51.216125
2022-12-11T09:32:36.429Z,51.216099
2022-12-11T09:33:36.443Z,51.216106
2022-12-11T09:34:36.422Z,51.216148
2022-12-11T09:35:36.419Z,51.216106
2022-12-11T09:36:36.402Z,51.216225
2022-12-11T09:37:36.395Z,51.216286
2022-12-11T09:38:36.391Z,51.216125
2022-12-11T09:39:36.382Z,51.216133
2022-12-11T09:40:36.387Z,51.216240
2022-12-11T09:41:36.371Z,51.216129
2022-12-11T09:42:36.362Z,51.216084
2022-12-11T09:43:36.361Z,51.216141
2022-12-11T09:44:36.359Z,51.216118
2022-12-11T09:45:36.345Z,51.216141
2022-12-11T09:46:36.401Z,51.216167
2022-12-11T09:47:36.335Z,51.216145
2022-12-11T09:48:36.318Z,51.216187
2022-12-11T09:49:42.282Z,51.216160
2022-12-11T09:50:37.309Z,51.216129
2022-12-11T09:51:36.296Z,51.216133
2022-12-11T09:52:36.292Z,51.216190
2022-12-11T09:53:36.290Z,51.216133
2022-12-11T09:54:36.295Z,51.216106
2022-12-11T09:55:36.271Z,51.216141
2022-12-11T09:56:36.269Z,51.216103
2022-12-11T09:57:36.267Z,51.216118
2022-12-11T09:58:36.258Z,51.216164
2022-12-11T09:59:36.248Z,51.216114
2022-12-11T10:00:36.243Z,51.216156
2022-12-11T10:01:36.298Z,51.216164
2022-12-11T10:02:36.315Z,51.216221
2022-12-11T10:03:36.225Z,51.216164
2022-12-11T10:04:36.220Z,51.216160
2022-12-11T10:05:36.211Z,51.216122
2022-12-11T10:06:36.194Z,51.216198
2022-12-11T10:07:36.203Z,51.216110
2022-12-11T10:08:36.188Z,51.216084
2022-12-11T10:09:36.185Z,51.216183
2022-12-11T10:10:36.182Z,51.216137
2022-12-11T10:11:36.165Z,51.216114
2022-12-11T10:12:36.181Z,51.216106
2022-12-11T10:13:36.168Z,51.216110
2022-12-11T10:14:36.189Z,51.216148
2022-12-11T10:15:36.225Z,51.216156
2022-12-11T10:16:36.140Z,51.216019
2022-12-11T10:17:36.137Z,51.216152
2022-12-11T10:18:36.151Z,51.216160
2022-12-11T10:19:36.125Z,51.216175
2022-12-11T10:20:36.125Z,51.216187
2022-12-11T10:21:36.111Z,51.216164
2022-12-11T10:22:36.094Z,51.216171
2022-12-11T10:23:36.111Z,51.216331
2022-12-11T10:25:09.311Z,51.216137
2022-12-11T10:25:38.084Z,51.216274
2022-12-11T10:26:36.078Z,51.216217
2022-12-11T10:27:36.063Z,51.216011
2022-12-11T10:28:36.064Z,51.216106
2022-12-11T10:29:36.067Z,51.216045
2022-12-11T10:30:36.046Z,51.216148
2022-12-11T10:31:36.106Z,51.216011
2022-12-11T10:32:36.062Z,51.216114
2022-12-11T10:33:36.047Z,51.216091
2022-12-11T10:34:36.029Z,51.216167
2022-12-11T10:35:36.019Z,51.216091
2022-12-11T10:36:36.010Z,51.215954
2022-12-11T10:37:36.004Z,51.215900
2022-12-11T10:38:36.008Z,51.216061
2022-12-11T10:39:35.992Z,51.216198
2022-12-11T10:40:35.989Z,51.216068
2022-12-11T10:41:35.976Z,51.216190
2022-12-11T10:42:38.013Z,51.216084
2022-12-11T10:43:36.976Z,51.216228
2022-12-11T10:44:35.963Z,51.216133
2022-12-11T10:45:35.949Z,51.216160
2022-12-11T10:46:35.956Z,51.216125
2022-12-11T10:47:35.939Z,51.216125
2022-12-11T10:48:35.939Z,51.216145
2022-12-11T10:49:35.922Z,51.216095
2022-12-11T10:50:35.923Z,51.216160
2022-12-11T10:51:35.919Z,51.216076
2022-12-11T10:52:35.903Z,51.216095
2022-12-11T10:53:35.918Z,51.216080
2022-12-11T10:54:35.887Z,51.216133
2022-12-11T10:55:35.888Z,51.216129
2022-12-11T10:56:35.879Z,51.216053
2022-12-11T10:57:35.874Z,51.216087
2022-12-11T10:58:35.877Z,51.216084
2022-12-11T10:59:35.858Z,51.216118
2022-12-11T11:00:35.851Z,51.216190
2022-12-11T11:01:35.916Z,51.216110
2022-12-11T11:02:35.890Z,51.216061
2022-12-11T11:03:35.867Z,51.215961
2022-12-11T11:04:35.827Z,51.215942
2022-12-11T11:05:35.835Z,51.216011
2022-12-11T11:06:35.812Z,51.216049
2022-12-11T11:07:35.827Z,51.216145
2022-12-11T11:08:35.820Z,51.216019
2022-12-11T11:09:35.800Z,51.216099
2022-12-11T11:10:35.799Z,51.216015
2022-12-11T11:11:35.778Z,51.216175
2022-12-11T11:12:35.778Z,51.216099
2022-12-11T11:13:35.775Z,51.216110
2022-12-11T11:14:35.767Z,51.216099
2022-12-11T11:15:35.758Z,51.216015
2022-12-11T11:16:35.759Z,51.215984
2022-12-11T11:17:37.624Z,51.216141
2022-12-11T11:18:36.763Z,51.216007
2022-12-11T11:19:35.726Z,51.216118
2022-12-11T11:20:35.726Z,51.216194
2022-12-11T11:21:35.728Z,51.216167
2022-12-11T11:22:35.843Z,51.216053
2022-12-11T11:23:38.703Z,51.215824
2022-12-11T11:24:36.703Z,51.215797